sensor_id;sensor_type;location;lat;lon;timestamp;P1;durP1;ratioP1;P2;durP2;ratioP2
18499;SDS011;9379;52.134;11.576;2023-02-28T00:01:31;5.93;;;4.90;;
18499;SDS011;9379;52.134;11.576;2023-02-28T00:03:58;5.75;;;5.07;;
18499;SDS011;9379;52.134;11.576;2023-02-28T00:06:26;8.90;;;5.68;;
18499;SDS011;9379;52.134;11.576;2023-02-28T00:08:53;7.50;;;4.72;;
18499;SDS011;9379;52.134;11.576;2023-02-28T00:11:20;6.90;;;6.20;;
18499;SDS011;9379;52.134;11.576;2023-02-28T00:13:49;7.20;;;5.38;;
18499;SDS011;9379;52.134;11.576;2023-02-28T00:16:17;9.55;;;4.97;;
18499;SDS011;9379;52.134;11.576;2023-02-28T00:18:45;6.57;;;5.63;;
18499;SDS011;9379;52.134;11.576;2023-02-28T00:21:13;7.38;;;6.72;;
18499;SDS011;9379;52.134;11.576;2023-02-28T00:23:41;11.13;;;6.80;;
18499;SDS011;9379;52.134;11.576;2023-02-28T00:26:09;4.40;;;3.97;;
18499;SDS011;9379;52.134;11.576;2023-02-28T00:28:36;4.53;;;3.83;;
18499;SDS011;9379;52.134;11.576;2023-02-28T00:31:04;8.93;;;4.38;;
18499;SDS011;9379;52.134;11.576;2023-02-28T00:33:31;5.20;;;4.20;;
18499;SDS011;9379;52.134;11.576;2023-02-28T00:36:02;5.43;;;4.50;;
18499;SDS011;9379;52.134;11.576;2023-02-28T00:38:30;5.78;;;5.38;;
18499;SDS011;9379;52.134;11.576;2023-02-28T00:40:57;4.18;;;3.60;;
18499;SDS011;9379;52.134;11.576;2023-02-28T00:43:29;6.07;;;4.80;;
18499;SDS011;9379;52.134;11.576;2023-02-28T00:45:56;8.07;;;5.15;;
18499;SDS011;9379;52.134;11.576;2023-02-28T00:48:24;5.90;;;5.05;;
18499;SDS011;9379;52.134;11.576;2023-02-28T00:50:51;6.30;;;4.43;;
18499;SDS011;9379;52.134;11.576;2023-02-28T00:53:18;5.40;;;4.82;;
18499;SDS011;9379;52.134;11.576;2023-02-28T00:55:44;6.40;;;4.88;;
18499;SDS011;9379;52.134;11.576;2023-02-28T00:58:11;4.10;;;3.70;;
18499;SDS011;9379;52.134;11.576;2023-02-28T01:00:38;3.92;;;3.63;;
18499;SDS011;9379;52.134;11.576;2023-02-28T01:03:05;4.43;;;3.65;;
18499;SDS011;9379;52.134;11.576;2023-02-28T01:05:33;3.95;;;3.65;;
18499;SDS011;9379;52.134;11.576;2023-02-28T01:08:00;4.18;;;3.83;;
18499;SDS011;9379;52.134;11.576;2023-02-28T01:10:27;5.35;;;4.88;;
18499;SDS011;9379;52.134;11.576;2023-02-28T01:12:56;7.72;;;3.97;;
18499;SDS011;9379;52.134;11.576;2023-02-28T01:15:23;3.45;;;3.15;;
18499;SDS011;9379;52.134;11.576;2023-02-28T01:17:50;4.72;;;4.22;;
18499;SDS011;9379;52.134;11.576;2023-02-28T01:20:16;5.70;;;4.47;;
18499;SDS011;9379;52.134;11.576;2023-02-28T01:22:45;5.43;;;4.90;;
18499;SDS011;9379;52.134;11.576;2023-02-28T01:25:12;5.20;;;4.30;;
18499;SDS011;9379;52.134;11.576;2023-02-28T01:27:38;5.05;;;4.60;;
18499;SDS011;9379;52.134;11.576;2023-02-28T01:30:06;5.55;;;4.20;;
18499;SDS011;9379;52.134;11.576;2023-02-28T01:32:34;6.18;;;3.97;;
18499;SDS011;9379;52.134;11.576;2023-02-28T01:35:01;6.00;;;4.40;;
18499;SDS011;9379;52.134;11.576;2023-02-28T01:37:28;4.45;;;4.13;;
18499;SDS011;9379;52.134;11.576;2023-02-28T01:39:56;5.90;;;4.00;;
18499;SDS011;9379;52.134;11.576;2023-02-28T01:42:23;6.90;;;4.38;;
18499;SDS011;9379;52.134;11.576;2023-02-28T01:45:15;5.88;;;4.05;;
18499;SDS011;9379;52.134;11.576;2023-02-28T01:47:46;4.85;;;3.78;;
18499;SDS011;9379;52.134;11.576;2023-02-28T01:50:18;7.20;;;4.85;;
18499;SDS011;9379;52.134;11.576;2023-02-28T01:52:49;3.95;;;3.58;;
18499;SDS011;9379;52.134;11.576;2023-02-28T01:55:19;8.13;;;3.67;;
18499;SDS011;9379;52.134;11.576;2023-02-28T01:57:50;5.05;;;4.55;;
18499;SDS011;9379;52.134;11.576;2023-02-28T02:00:21;5.40;;;4.07;;
18499;SDS011;9379;52.134;11.576;2023-02-28T02:02:52;5.18;;;3.85;;
18499;SDS011;9379;52.134;11.576;2023-02-28T02:05:24;5.97;;;4.60;;
18499;SDS011;9379;52.134;11.576;2023-02-28T02:07:54;5.68;;;5.07;;
18499;SDS011;9379;52.134;11.576;2023-02-28T02:10:25;4.28;;;3.88;;
18499;SDS011;9379;52.134;11.576;2023-02-28T02:13:06;5.07;;;4.20;;
18499;SDS011;9379;52.134;11.576;2023-02-28T02:15:41;4.05;;;3.67;;
18499;SDS011;9379;52.134;11.576;2023-02-28T02:18:16;6.05;;;3.60;;
18499;SDS011;9379;52.134;11.576;2023-02-28T02:27:05;4.13;;;3.83;;
18499;SDS011;9379;52.134;11.576;2023-02-28T02:29:54;4.57;;;3.47;;
18499;SDS011;9379;52.134;11.576;2023-02-28T02:32:43;4.40;;;4.03;;
18499;SDS011;9379;52.134;11.576;2023-02-28T02:35:22;4.55;;;4.15;;
18499;SDS011;9379;52.134;11.576;2023-02-28T02:37:54;4.15;;;3.85;;
18499;SDS011;9379;52.134;11.576;2023-02-28T02:40:30;4.10;;;3.72;;
18499;SDS011;9379;52.134;11.576;2023-02-28T02:43:02;5.97;;;3.72;;
18499;SDS011;9379;52.134;11.576;2023-02-28T02:45:33;4.53;;;4.10;;
18499;SDS011;9379;52.134;11.576;2023-02-28T02:48:05;5.38;;;4.03;;
18499;SDS011;9379;52.134;11.576;2023-02-28T02:50:38;5.03;;;3.25;;
18499;SDS011;9379;52.134;11.576;2023-02-28T02:53:10;4.25;;;3.85;;
18499;SDS011;9379;52.134;11.576;2023-02-28T02:55:40;4.18;;;3.70;;
18499;SDS011;9379;52.134;11.576;2023-02-28T02:58:10;2.60;;;2.40;;
18499;SDS011;9379;52.134;11.576;2023-02-28T03:00:42;3.60;;;3.30;;
18499;SDS011;9379;52.134;11.576;2023-02-28T03:03:11;3.05;;;2.58;;
18499;SDS011;9379;52.134;11.576;2023-02-28T03:05:41;3.80;;;3.45;;
18499;SDS011;9379;52.134;11.576;2023-02-28T03:08:11;2.53;;;2.33;;
18499;SDS011;9379;52.134;11.576;2023-02-28T03:10:40;2.53;;;2.33;;
18499;SDS011;9379;52.134;11.576;2023-02-28T03:16:12;5.55;;;3.13;;
18499;SDS011;9379;52.134;11.576;2023-02-28T03:18:58;3.67;;;3.00;;
18499;SDS011;9379;52.134;11.576;2023-02-28T03:21:36;3.42;;;3.08;;
18499;SDS011;9379;52.134;11.576;2023-02-28T03:24:07;3.20;;;2.90;;
18499;SDS011;9379;52.134;11.576;2023-02-28T03:26:39;3.78;;;3.25;;
18499;SDS011;9379;52.134;11.576;2023-02-28T03:29:11;2.47;;;2.28;;
18499;SDS011;9379;52.134;11.576;2023-02-28T03:31:48;2.60;;;2.47;;
18499;SDS011;9379;52.134;11.576;2023-02-28T03:34:22;2.80;;;2.60;;
18499;SDS011;9379;52.134;11.576;2023-02-28T03:36:57;4.22;;;2.40;;
18499;SDS011;9379;52.134;11.576;2023-02-28T03:39:28;3.08;;;2.78;;
18499;SDS011;9379;52.134;11.576;2023-02-28T03:42:04;3.33;;;3.13;;
18499;SDS011;9379;52.134;11.576;2023-02-28T03:44:35;3.35;;;3.10;;
18499;SDS011;9379;52.134;11.576;2023-02-28T03:47:06;2.97;;;2.78;;
18499;SDS011;9379;52.134;11.576;2023-02-28T03:49:38;6.38;;;3.47;;
18499;SDS011;9379;52.134;11.576;2023-02-28T03:52:11;3.80;;;3.08;;
18499;SDS011;9379;52.134;11.576;2023-02-28T03:54:39;3.75;;;3.30;;
18499;SDS011;9379;52.134;11.576;2023-02-28T03:57:11;5.15;;;2.92;;
18499;SDS011;9379;52.134;11.576;2023-02-28T03:59:46;3.58;;;3.08;;
18499;SDS011;9379;52.134;11.576;2023-02-28T04:02:15;2.60;;;2.40;;
18499;SDS011;9379;52.134;11.576;2023-02-28T04:04:43;3.65;;;2.42;;
18499;SDS011;9379;52.134;11.576;2023-02-28T04:07:15;3.10;;;2.80;;
18499;SDS011;9379;52.134;11.576;2023-02-28T04:09:42;2.97;;;2.78;;
18499;SDS011;9379;52.134;11.576;2023-02-28T04:12:09;3.80;;;3.03;;
18499;SDS011;9379;52.134;11.576;2023-02-28T04:14:36;4.60;;;4.15;;
18499;SDS011;9379;52.134;11.576;2023-02-28T04:17:03;4.00;;;3.20;;
18499;SDS011;9379;52.134;11.576;2023-02-28T04:19:30;3.83;;;3.20;;
18499;SDS011;9379;52.134;11.576;2023-02-28T04:21:56;4.53;;;3.92;;
18499;SDS011;9379;52.134;11.576;2023-02-28T04:24:26;4.78;;;3.05;;
18499;SDS011;9379;52.134;11.576;2023-02-28T04:26:55;6.28;;;4.22;;
18499;SDS011;9379;52.134;11.576;2023-02-28T04:29:23;4.53;;;4.13;;
18499;SDS011;9379;52.134;11.576;2023-02-28T04:31:52;3.15;;;2.83;;
18499;SDS011;9379;52.134;11.576;2023-02-28T04:34:19;4.60;;;3.67;;
18499;SDS011;9379;52.134;11.576;2023-02-28T04:36:46;3.60;;;3.03;;
18499;SDS011;9379;52.134;11.576;2023-02-28T04:39:14;6.57;;;3.78;;
18499;SDS011;9379;52.134;11.576;2023-02-28T04:41:42;3.05;;;2.83;;
18499;SDS011;9379;52.134;11.576;2023-02-28T04:44:09;4.53;;;2.80;;
18499;SDS011;9379;52.134;11.576;2023-02-28T04:46:35;3.67;;;3.38;;
18499;SDS011;9379;52.134;11.576;2023-02-28T04:49:02;3.22;;;2.92;;
18499;SDS011;9379;52.134;11.576;2023-02-28T04:51:29;3.42;;;2.80;;
18499;SDS011;9379;52.134;11.576;2023-02-28T04:53:56;3.28;;;3.05;;
18499;SDS011;9379;52.134;11.576;2023-02-28T04:56:23;5.32;;;2.75;;
18499;SDS011;9379;52.134;11.576;2023-02-28T04:58:51;3.08;;;2.85;;
18499;SDS011;9379;52.134;11.576;2023-02-28T05:01:22;2.90;;;2.65;;
18499;SDS011;9379;52.134;11.576;2023-02-28T05:03:51;3.70;;;3.40;;
18499;SDS011;9379;52.134;11.576;2023-02-28T05:06:19;3.38;;;3.03;;
18499;SDS011;9379;52.134;11.576;2023-02-28T05:08:46;3.10;;;2.88;;
18499;SDS011;9379;52.134;11.576;2023-02-28T05:11:15;3.50;;;3.20;;
18499;SDS011;9379;52.134;11.576;2023-02-28T05:13:43;4.25;;;3.50;;
18499;SDS011;9379;52.134;11.576;2023-02-28T05:16:12;3.25;;;3.05;;
18499;SDS011;9379;52.134;11.576;2023-02-28T05:18:39;3.40;;;3.13;;
18499;SDS011;9379;52.134;11.576;2023-02-28T05:21:06;5.43;;;3.63;;
18499;SDS011;9379;52.134;11.576;2023-02-28T05:23:44;4.50;;;3.65;;
18499;SDS011;9379;52.134;11.576;2023-02-28T05:26:10;3.10;;;2.88;;
18499;SDS011;9379;52.134;11.576;2023-02-28T05:28:37;10.70;;;5.03;;
18499;SDS011;9379;52.134;11.576;2023-02-28T05:31:04;3.50;;;3.20;;
18499;SDS011;9379;52.134;11.576;2023-02-28T05:33:32;3.63;;;3.33;;
18499;SDS011;9379;52.134;11.576;2023-02-28T05:35:59;2.80;;;2.60;;
18499;SDS011;9379;52.134;11.576;2023-02-28T05:38:26;6.82;;;3.00;;
18499;SDS011;9379;52.134;11.576;2023-02-28T05:40:53;2.97;;;2.70;;
18499;SDS011;9379;52.134;11.576;2023-02-28T05:43:19;4.38;;;3.38;;
18499;SDS011;9379;52.134;11.576;2023-02-28T05:45:46;3.47;;;3.17;;
18499;SDS011;9379;52.134;11.576;2023-02-28T05:48:13;3.95;;;3.55;;
18499;SDS011;9379;52.134;11.576;2023-02-28T05:50:41;3.25;;;2.80;;
18499;SDS011;9379;52.134;11.576;2023-02-28T05:53:14;3.83;;;3.00;;
18499;SDS011;9379;52.134;11.576;2023-02-28T05:55:40;3.30;;;3.00;;
18499;SDS011;9379;52.134;11.576;2023-02-28T05:58:07;3.00;;;2.80;;
18499;SDS011;9379;52.134;11.576;2023-02-28T06:00:34;4.90;;;3.53;;
18499;SDS011;9379;52.134;11.576;2023-02-28T06:03:01;3.42;;;3.13;;
18499;SDS011;9379;52.134;11.576;2023-02-28T06:05:27;6.25;;;3.90;;
18499;SDS011;9379;52.134;11.576;2023-02-28T06:07:56;3.83;;;3.53;;
18499;SDS011;9379;52.134;11.576;2023-02-28T06:10:22;3.38;;;3.13;;
18499;SDS011;9379;52.134;11.576;2023-02-28T06:12:49;4.80;;;3.28;;
18499;SDS011;9379;52.134;11.576;2023-02-28T06:15:16;4.18;;;3.85;;
18499;SDS011;9379;52.134;11.576;2023-02-28T06:17:43;3.90;;;3.38;;
18499;SDS011;9379;52.134;11.576;2023-02-28T06:20:11;6.10;;;3.80;;
18499;SDS011;9379;52.134;11.576;2023-02-28T06:22:39;4.25;;;3.50;;
18499;SDS011;9379;52.134;11.576;2023-02-28T06:25:07;7.00;;;3.72;;
18499;SDS011;9379;52.134;11.576;2023-02-28T06:27:35;4.82;;;4.43;;
18499;SDS011;9379;52.134;11.576;2023-02-28T06:30:02;5.00;;;4.43;;
18499;SDS011;9379;52.134;11.576;2023-02-28T06:32:30;5.25;;;4.63;;
18499;SDS011;9379;52.134;11.576;2023-02-28T06:34:56;6.47;;;5.88;;
18499;SDS011;9379;52.134;11.576;2023-02-28T06:37:23;4.82;;;3.63;;
18499;SDS011;9379;52.134;11.576;2023-02-28T06:39:51;5.07;;;2.85;;
18499;SDS011;9379;52.134;11.576;2023-02-28T06:42:19;4.38;;;3.95;;
18499;SDS011;9379;52.134;11.576;2023-02-28T06:44:47;4.07;;;3.60;;
18499;SDS011;9379;52.134;11.576;2023-02-28T06:47:13;5.82;;;4.50;;
18499;SDS011;9379;52.134;11.576;2023-02-28T06:49:40;4.60;;;4.03;;
18499;SDS011;9379;52.134;11.576;2023-02-28T06:52:07;4.47;;;3.90;;
18499;SDS011;9379;52.134;11.576;2023-02-28T06:54:36;6.50;;;4.30;;
18499;SDS011;9379;52.134;11.576;2023-02-28T06:57:02;4.47;;;4.15;;
18499;SDS011;9379;52.134;11.576;2023-02-28T06:59:31;12.15;;;4.97;;
18499;SDS011;9379;52.134;11.576;2023-02-28T07:01:57;3.70;;;3.45;;
18499;SDS011;9379;52.134;11.576;2023-02-28T07:04:25;5.65;;;3.83;;
18499;SDS011;9379;52.134;11.576;2023-02-28T07:06:52;4.47;;;4.07;;
18499;SDS011;9379;52.134;11.576;2023-02-28T07:09:21;3.58;;;3.28;;
18499;SDS011;9379;52.134;11.576;2023-02-28T07:11:48;3.67;;;3.38;;
18499;SDS011;9379;52.134;11.576;2023-02-28T07:14:15;3.55;;;3.25;;
18499;SDS011;9379;52.134;11.576;2023-02-28T07:16:43;5.00;;;3.33;;
18499;SDS011;9379;52.134;11.576;2023-02-28T07:19:10;5.07;;;4.55;;
18499;SDS011;9379;52.134;11.576;2023-02-28T07:21:37;5.03;;;3.72;;
18499;SDS011;9379;52.134;11.576;2023-02-28T07:24:04;4.07;;;3.67;;
18499;SDS011;9379;52.134;11.576;2023-02-28T07:26:32;5.07;;;3.22;;
18499;SDS011;9379;52.134;11.576;2023-02-28T07:29:00;6.03;;;5.05;;
18499;SDS011;9379;52.134;11.576;2023-02-28T07:31:27;3.83;;;3.50;;
18499;SDS011;9379;52.134;11.576;2023-02-28T07:33:55;5.55;;;4.60;;
18499;SDS011;9379;52.134;11.576;2023-02-28T07:36:22;5.50;;;4.38;;
18499;SDS011;9379;52.134;11.576;2023-02-28T07:38:49;5.63;;;4.95;;
18499;SDS011;9379;52.134;11.576;2023-02-28T07:41:16;7.53;;;4.47;;
18499;SDS011;9379;52.134;11.576;2023-02-28T07:43:43;6.32;;;4.90;;
18499;SDS011;9379;52.134;11.576;2023-02-28T07:46:11;5.85;;;3.92;;
18499;SDS011;9379;52.134;11.576;2023-02-28T07:48:40;4.60;;;3.80;;
18499;SDS011;9379;52.134;11.576;2023-02-28T07:51:09;4.70;;;4.30;;
18499;SDS011;9379;52.134;11.576;2023-02-28T07:53:36;8.90;;;4.47;;
18499;SDS011;9379;52.134;11.576;2023-02-28T07:56:03;6.25;;;4.47;;
18499;SDS011;9379;52.134;11.576;2023-02-28T07:58:31;4.93;;;4.53;;
18499;SDS011;9379;52.134;11.576;2023-02-28T08:00:57;3.60;;;3.38;;
18499;SDS011;9379;52.134;11.576;2023-02-28T08:03:31;4.72;;;4.07;;
18499;SDS011;9379;52.134;11.576;2023-02-28T08:05:58;7.35;;;5.90;;
18499;SDS011;9379;52.134;11.576;2023-02-28T08:08:26;6.50;;;5.63;;
18499;SDS011;9379;52.134;11.576;2023-02-28T08:10:57;10.68;;;5.40;;
18499;SDS011;9379;52.134;11.576;2023-02-28T08:13:25;5.45;;;4.95;;
18499;SDS011;9379;52.134;11.576;2023-02-28T08:15:53;5.55;;;4.75;;
18499;SDS011;9379;52.134;11.576;2023-02-28T08:18:20;5.03;;;4.35;;
18499;SDS011;9379;52.134;11.576;2023-02-28T08:20:47;4.65;;;4.25;;
18499;SDS011;9379;52.134;11.576;2023-02-28T08:23:14;3.92;;;3.53;;
18499;SDS011;9379;52.134;11.576;2023-02-28T08:25:43;6.25;;;4.88;;
18499;SDS011;9379;52.134;11.576;2023-02-28T08:28:13;5.07;;;4.68;;
18499;SDS011;9379;52.134;11.576;2023-02-28T08:30:40;7.38;;;5.60;;
18499;SDS011;9379;52.134;11.576;2023-02-28T08:33:07;4.90;;;4.25;;
18499;SDS011;9379;52.134;11.576;2023-02-28T08:35:35;3.72;;;3.30;;
18499;SDS011;9379;52.134;11.576;2023-02-28T08:38:02;4.68;;;3.40;;
18499;SDS011;9379;52.134;11.576;2023-02-28T08:40:29;4.75;;;3.97;;
18499;SDS011;9379;52.134;11.576;2023-02-28T08:42:57;6.55;;;3.83;;
18499;SDS011;9379;52.134;11.576;2023-02-28T08:45:24;4.45;;;3.97;;
18499;SDS011;9379;52.134;11.576;2023-02-28T08:47:51;3.58;;;3.20;;
18499;SDS011;9379;52.134;11.576;2023-02-28T08:50:20;5.40;;;4.13;;
18499;SDS011;9379;52.134;11.576;2023-02-28T08:52:47;4.22;;;3.83;;
18499;SDS011;9379;52.134;11.576;2023-02-28T08:55:14;4.47;;;3.83;;
18499;SDS011;9379;52.134;11.576;2023-02-28T08:57:40;4.63;;;4.18;;
18499;SDS011;9379;52.134;11.576;2023-02-28T09:00:09;4.53;;;3.88;;
18499;SDS011;9379;52.134;11.576;2023-02-28T09:02:38;4.80;;;4.28;;
18499;SDS011;9379;52.134;11.576;2023-02-28T09:05:06;3.60;;;3.30;;
18499;SDS011;9379;52.134;11.576;2023-02-28T09:07:34;2.90;;;2.67;;
18499;SDS011;9379;52.134;11.576;2023-02-28T09:10:01;3.67;;;3.33;;
18499;SDS011;9379;52.134;11.576;2023-02-28T09:12:27;3.22;;;2.47;;
18499;SDS011;9379;52.134;11.576;2023-02-28T09:14:59;3.03;;;2.83;;
18499;SDS011;9379;52.134;11.576;2023-02-28T09:17:27;4.30;;;3.85;;
18499;SDS011;9379;52.134;11.576;2023-02-28T09:19:54;5.00;;;3.50;;
18499;SDS011;9379;52.134;11.576;2023-02-28T09:22:22;2.60;;;2.40;;
18499;SDS011;9379;52.134;11.576;2023-02-28T09:24:48;3.03;;;2.80;;
18499;SDS011;9379;52.134;11.576;2023-02-28T09:27:15;2.22;;;2.08;;
18499;SDS011;9379;52.134;11.576;2023-02-28T09:29:42;3.42;;;2.80;;
18499;SDS011;9379;52.134;11.576;2023-02-28T09:32:09;2.75;;;2.50;;
18499;SDS011;9379;52.134;11.576;2023-02-28T09:34:37;3.92;;;3.17;;
18499;SDS011;9379;52.134;11.576;2023-02-28T09:37:03;3.25;;;2.95;;
18499;SDS011;9379;52.134;11.576;2023-02-28T09:39:30;3.38;;;2.72;;
18499;SDS011;9379;52.134;11.576;2023-02-28T09:41:57;2.95;;;2.65;;
18499;SDS011;9379;52.134;11.576;2023-02-28T09:44:26;2.85;;;2.65;;
18499;SDS011;9379;52.134;11.576;2023-02-28T09:46:59;7.20;;;3.55;;
18499;SDS011;9379;52.134;11.576;2023-02-28T09:49:33;2.72;;;2.53;;
18499;SDS011;9379;52.134;11.576;2023-02-28T09:52:07;5.72;;;2.80;;
18499;SDS011;9379;52.134;11.576;2023-02-28T09:54:36;3.92;;;3.47;;
18499;SDS011;9379;52.134;11.576;2023-02-28T09:57:05;3.45;;;3.15;;
18499;SDS011;9379;52.134;11.576;2023-02-28T09:59:39;3.67;;;2.42;;
18499;SDS011;9379;52.134;11.576;2023-02-28T10:02:17;2.70;;;2.50;;
18499;SDS011;9379;52.134;11.576;2023-02-28T10:04:58;4.30;;;3.03;;
18499;SDS011;9379;52.134;11.576;2023-02-28T10:07:35;2.17;;;1.98;;
18499;SDS011;9379;52.134;11.576;2023-02-28T10:10:14;3.42;;;3.13;;
18499;SDS011;9379;52.134;11.576;2023-02-28T10:12:46;6.13;;;3.13;;
18499;SDS011;9379;52.134;11.576;2023-02-28T10:15:14;5.30;;;3.13;;
18499;SDS011;9379;52.134;11.576;2023-02-28T10:17:44;3.65;;;2.90;;
18499;SDS011;9379;52.134;11.576;2023-02-28T10:20:15;2.72;;;2.50;;
18499;SDS011;9379;52.134;11.576;2023-02-28T10:22:52;3.13;;;2.80;;
18499;SDS011;9379;52.134;11.576;2023-02-28T10:25:23;3.10;;;2.67;;
18499;SDS011;9379;52.134;11.576;2023-02-28T10:27:52;2.10;;;1.90;;
18499;SDS011;9379;52.134;11.576;2023-02-28T10:30:20;2.83;;;2.63;;
18499;SDS011;9379;52.134;11.576;2023-02-28T10:32:49;4.18;;;3.42;;
18499;SDS011;9379;52.134;11.576;2023-02-28T10:35:19;3.15;;;2.85;;
18499;SDS011;9379;52.134;11.576;2023-02-28T10:37:47;2.63;;;2.42;;
18499;SDS011;9379;52.134;11.576;2023-02-28T10:40:29;3.30;;;2.42;;
18499;SDS011;9379;52.134;11.576;2023-02-28T10:42:58;5.68;;;2.63;;
18499;SDS011;9379;52.134;11.576;2023-02-28T10:45:28;3.17;;;2.72;;
18499;SDS011;9379;52.134;11.576;2023-02-28T10:47:57;2.67;;;2.50;;
18499;SDS011;9379;52.134;11.576;2023-02-28T10:50:27;8.98;;;2.83;;
18499;SDS011;9379;52.134;11.576;2023-02-28T10:52:55;3.35;;;3.05;;
18499;SDS011;9379;52.134;11.576;2023-02-28T10:55:59;2.90;;;2.17;;
18499;SDS011;9379;52.134;11.576;2023-02-28T10:58:28;3.72;;;2.30;;
18499;SDS011;9379;52.134;11.576;2023-02-28T11:00:56;2.30;;;2.13;;
18499;SDS011;9379;52.134;11.576;2023-02-28T11:03:25;2.10;;;2.00;;
18499;SDS011;9379;52.134;11.576;2023-02-28T11:05:56;3.95;;;2.60;;
18499;SDS011;9379;52.134;11.576;2023-02-28T11:08:26;3.00;;;2.63;;
18499;SDS011;9379;52.134;11.576;2023-02-28T11:10:54;3.00;;;2.45;;
18499;SDS011;9379;52.134;11.576;2023-02-28T11:13:26;2.38;;;2.17;;
18499;SDS011;9379;52.134;11.576;2023-02-28T11:15:56;3.20;;;2.92;;
18499;SDS011;9379;52.134;11.576;2023-02-28T11:18:26;4.25;;;2.10;;
18499;SDS011;9379;52.134;11.576;2023-02-28T11:20:56;2.95;;;2.55;;
18499;SDS011;9379;52.134;11.576;2023-02-28T11:23:25;2.53;;;2.33;;
18499;SDS011;9379;52.134;11.576;2023-02-28T11:25:56;1.58;;;1.48;;
18499;SDS011;9379;52.134;11.576;2023-02-28T11:28:28;2.58;;;2.45;;
18499;SDS011;9379;52.134;11.576;2023-02-28T11:31:02;3.30;;;3.00;;
18499;SDS011;9379;52.134;11.576;2023-02-28T11:33:31;5.68;;;2.95;;
18499;SDS011;9379;52.134;11.576;2023-02-28T11:36:09;5.57;;;2.92;;
18499;SDS011;9379;52.134;11.576;2023-02-28T11:38:38;3.08;;;2.88;;
18499;SDS011;9379;52.134;11.576;2023-02-28T11:41:08;5.20;;;2.90;;
18499;SDS011;9379;52.134;11.576;2023-02-28T11:46:56;4.40;;;3.67;;
18499;SDS011;9379;52.134;11.576;2023-02-28T11:49:32;3.80;;;2.40;;
18499;SDS011;9379;52.134;11.576;2023-02-28T11:52:06;3.03;;;2.28;;
18499;SDS011;9379;52.134;11.576;2023-02-28T11:57:46;2.22;;;2.03;;
18499;SDS011;9379;52.134;11.576;2023-02-28T12:00:32;4.45;;;2.92;;
18499;SDS011;9379;52.134;11.576;2023-02-28T12:03:12;3.10;;;2.80;;
18499;SDS011;9379;52.134;11.576;2023-02-28T12:05:50;2.60;;;2.42;;
18499;SDS011;9379;52.134;11.576;2023-02-28T12:08:26;3.08;;;2.78;;
18499;SDS011;9379;52.134;11.576;2023-02-28T12:11:10;5.45;;;2.45;;
18499;SDS011;9379;52.134;11.576;2023-02-28T12:13:47;2.22;;;2.13;;
18499;SDS011;9379;52.134;11.576;2023-02-28T12:19:16;2.13;;;1.95;;
18499;SDS011;9379;52.134;11.576;2023-02-28T12:27:58;2.63;;;2.42;;
18499;SDS011;9379;52.134;11.576;2023-02-28T12:30:30;1.90;;;1.80;;
18499;SDS011;9379;52.134;11.576;2023-02-28T12:33:03;2.28;;;2.05;;
18499;SDS011;9379;52.134;11.576;2023-02-28T12:35:33;2.58;;;2.38;;
18499;SDS011;9379;52.134;11.576;2023-02-28T12:38:04;3.33;;;2.20;;
18499;SDS011;9379;52.134;11.576;2023-02-28T12:40:41;5.53;;;3.08;;
18499;SDS011;9379;52.134;11.576;2023-02-28T12:43:11;2.20;;;2.00;;
18499;SDS011;9379;52.134;11.576;2023-02-28T12:45:42;2.17;;;1.98;;
18499;SDS011;9379;52.134;11.576;2023-02-28T12:48:15;2.90;;;2.70;;
18499;SDS011;9379;52.134;11.576;2023-02-28T12:50:47;2.40;;;2.20;;
18499;SDS011;9379;52.134;11.576;2023-02-28T12:53:17;3.47;;;3.17;;
18499;SDS011;9379;52.134;11.576;2023-02-28T12:55:53;5.40;;;1.83;;
18499;SDS011;9379;52.134;11.576;2023-02-28T12:58:37;2.15;;;2.03;;
18499;SDS011;9379;52.134;11.576;2023-02-28T13:07:31;2.35;;;2.15;;
18499;SDS011;9379;52.134;11.576;2023-02-28T13:10:13;5.35;;;2.05;;
18499;SDS011;9379;52.134;11.576;2023-02-28T13:12:46;3.17;;;2.58;;
18499;SDS011;9379;52.134;11.576;2023-02-28T13:15:17;5.43;;;2.55;;
18499;SDS011;9379;52.134;11.576;2023-02-28T13:17:49;4.20;;;2.70;;
18499;SDS011;9379;52.134;11.576;2023-02-28T13:20:17;2.47;;;2.28;;
18499;SDS011;9379;52.134;11.576;2023-02-28T13:22:47;3.33;;;2.85;;
18499;SDS011;9379;52.134;11.576;2023-02-28T13:35:14;3.35;;;2.75;;
18499;SDS011;9379;52.134;11.576;2023-02-28T13:38:12;2.97;;;2.13;;
18499;SDS011;9379;52.134;11.576;2023-02-28T13:40:42;3.20;;;2.88;;
18499;SDS011;9379;52.134;11.576;2023-02-28T13:46:13;2.50;;;2.30;;
18499;SDS011;9379;52.134;11.576;2023-02-28T13:48:40;2.72;;;2.53;;
18499;SDS011;9379;52.134;11.576;2023-02-28T13:51:28;3.35;;;2.90;;
18499;SDS011;9379;52.134;11.576;2023-02-28T13:54:09;2.53;;;2.33;;
18499;SDS011;9379;52.134;11.576;2023-02-28T13:56:48;2.13;;;1.92;;
18499;SDS011;9379;52.134;11.576;2023-02-28T13:59:23;5.85;;;4.00;;
18499;SDS011;9379;52.134;11.576;2023-02-28T14:02:01;3.55;;;3.25;;
18499;SDS011;9379;52.134;11.576;2023-02-28T14:04:50;3.83;;;3.40;;
18499;SDS011;9379;52.134;11.576;2023-02-28T14:07:25;2.95;;;2.65;;
18499;SDS011;9379;52.134;11.576;2023-02-28T14:09:59;5.75;;;3.40;;
18499;SDS011;9379;52.134;11.576;2023-02-28T14:15:26;2.55;;;2.38;;
18499;SDS011;9379;52.134;11.576;2023-02-28T14:18:15;3.92;;;3.53;;
18499;SDS011;9379;52.134;11.576;2023-02-28T14:20:46;3.08;;;2.88;;
18499;SDS011;9379;52.134;11.576;2023-02-28T14:23:16;3.08;;;2.78;;
18499;SDS011;9379;52.134;11.576;2023-02-28T14:25:54;2.72;;;2.53;;
18499;SDS011;9379;52.134;11.576;2023-02-28T14:28:36;4.30;;;2.70;;
18499;SDS011;9379;52.134;11.576;2023-02-28T14:31:16;3.08;;;2.85;;
18499;SDS011;9379;52.134;11.576;2023-02-28T14:33:57;6.00;;;4.47;;
18499;SDS011;9379;52.134;11.576;2023-02-28T14:36:32;2.92;;;2.72;;
18499;SDS011;9379;52.134;11.576;2023-02-28T14:39:03;2.83;;;2.65;;
18499;SDS011;9379;52.134;11.576;2023-02-28T14:41:34;2.63;;;2.15;;
18499;SDS011;9379;52.134;11.576;2023-02-28T14:44:12;2.63;;;2.42;;
18499;SDS011;9379;52.134;11.576;2023-02-28T14:46:41;3.25;;;2.15;;
18499;SDS011;9379;52.134;11.576;2023-02-28T14:49:12;3.10;;;2.85;;
18499;SDS011;9379;52.134;11.576;2023-02-28T14:51:42;3.47;;;2.50;;
18499;SDS011;9379;52.134;11.576;2023-02-28T14:54:12;2.63;;;1.88;;
18499;SDS011;9379;52.134;11.576;2023-02-28T14:56:42;3.38;;;3.08;;
18499;SDS011;9379;52.134;11.576;2023-02-28T14:59:24;2.58;;;2.38;;
18499;SDS011;9379;52.134;11.576;2023-02-28T15:04:43;4.47;;;3.08;;
18499;SDS011;9379;52.134;11.576;2023-02-28T15:07:10;3.85;;;2.28;;
18499;SDS011;9379;52.134;11.576;2023-02-28T15:09:37;2.88;;;2.58;;
18499;SDS011;9379;52.134;11.576;2023-02-28T15:12:05;5.20;;;3.60;;
18499;SDS011;9379;52.134;11.576;2023-02-28T15:14:32;3.53;;;2.42;;
18499;SDS011;9379;52.134;11.576;2023-02-28T15:17:05;4.43;;;2.92;;
18499;SDS011;9379;52.134;11.576;2023-02-28T15:19:35;3.58;;;3.28;;
18499;SDS011;9379;52.134;11.576;2023-02-28T15:22:06;3.67;;;3.13;;
18499;SDS011;9379;52.134;11.576;2023-02-28T15:24:39;2.88;;;2.67;;
18499;SDS011;9379;52.134;11.576;2023-02-28T15:27:11;2.97;;;2.78;;
18499;SDS011;9379;52.134;11.576;2023-02-28T15:29:43;3.42;;;3.13;;
18499;SDS011;9379;52.134;11.576;2023-02-28T15:32:25;2.40;;;2.20;;
18499;SDS011;9379;52.134;11.576;2023-02-28T15:34:54;3.17;;;2.97;;
18499;SDS011;9379;52.134;11.576;2023-02-28T15:37:26;3.20;;;3.00;;
18499;SDS011;9379;52.134;11.576;2023-02-28T15:39:56;2.95;;;2.75;;
18499;SDS011;9379;52.134;11.576;2023-02-28T15:42:32;5.63;;;4.43;;
18499;SDS011;9379;52.134;11.576;2023-02-28T15:44:58;4.90;;;3.40;;
18499;SDS011;9379;52.134;11.576;2023-02-28T15:47:26;6.63;;;3.00;;
18499;SDS011;9379;52.134;11.576;2023-02-28T15:49:56;2.75;;;2.55;;
18499;SDS011;9379;52.134;11.576;2023-02-28T15:52:27;4.65;;;3.55;;
18499;SDS011;9379;52.134;11.576;2023-02-28T15:54:56;3.58;;;3.28;;
18499;SDS011;9379;52.134;11.576;2023-02-28T15:57:24;4.72;;;3.33;;